sensor_id;sensor_type;location;lat;lon;timestamp;temperature;humidity
20735;DHT22;10528;52.124;5.196;2023-02-04T00:01:23;9.10;99.90
20735;DHT22;10528;52.124;5.196;2023-02-04T00:03:50;9.00;99.90
20735;DHT22;10528;52.124;5.196;2023-02-04T00:06:17;8.90;99.90
20735;DHT22;10528;52.124;5.196;2023-02-04T00:08:44;9.00;99.90
20735;DHT22;10528;52.124;5.196;2023-02-04T00:11:11;8.90;99.90
20735;DHT22;10528;52.124;5.196;2023-02-04T00:13:38;8.90;99.90
20735;DHT22;10528;52.124;5.196;2023-02-04T00:16:05;8.80;99.90
20735;DHT22;10528;52.124;5.196;2023-02-04T00:18:33;8.90;99.90
20735;DHT22;10528;52.124;5.196;2023-02-04T00:21:00;8.90;99.90
20735;DHT22;10528;52.124;5.196;2023-02-04T00:23:27;8.90;99.90
20735;DHT22;10528;52.124;5.196;2023-02-04T00:25:54;8.80;99.90
20735;DHT22;10528;52.124;5.196;2023-02-04T00:28:24;8.80;99.90
20735;DHT22;10528;52.124;5.196;2023-02-04T00:30:50;8.70;99.90
20735;DHT22;10528;52.124;5.196;2023-02-04T00:33:17;8.60;99.90
20735;DHT22;10528;52.124;5.196;2023-02-04T00:35:44;8.60;99.90
20735;DHT22;10528;52.124;5.196;2023-02-04T00:38:12;8.50;99.90
20735;DHT22;10528;52.124;5.196;2023-02-04T00:40:39;8.50;99.90
20735;DHT22;10528;52.124;5.196;2023-02-04T00:43:06;8.50;99.90
20735;DHT22;10528;52.124;5.196;2023-02-04T00:45:33;8.50;99.90
20735;DHT22;10528;52.124;5.196;2023-02-04T00:47:59;8.50;99.90
20735;DHT22;10528;52.124;5.196;2023-02-04T00:50:27;8.40;99.90
20735;DHT22;10528;52.124;5.196;2023-02-04T00:52:54;8.40;99.90
20735;DHT22;10528;52.124;5.196;2023-02-04T00:55:22;8.40;99.90
20735;DHT22;10528;52.124;5.196;2023-02-04T00:57:48;8.40;99.90
20735;DHT22;10528;52.124;5.196;2023-02-04T01:00:20;8.40;99.90
20735;DHT22;10528;52.124;5.196;2023-02-04T01:02:47;8.40;99.90
20735;DHT22;10528;52.124;5.196;2023-02-04T01:05:13;8.30;99.90
20735;DHT22;10528;52.124;5.196;2023-02-04T01:07:40;8.30;99.90
20735;DHT22;10528;52.124;5.196;2023-02-04T01:10:08;8.30;99.90
20735;DHT22;10528;52.124;5.196;2023-02-04T01:12:35;8.30;99.90
20735;DHT22;10528;52.124;5.196;2023-02-04T01:15:04;8.20;99.90
20735;DHT22;10528;52.124;5.196;2023-02-04T01:17:31;8.20;99.90
20735;DHT22;10528;52.124;5.196;2023-02-04T01:19:58;8.20;99.90
20735;DHT22;10528;52.124;5.196;2023-02-04T01:22:24;8.10;99.90
20735;DHT22;10528;52.124;5.196;2023-02-04T01:24:51;8.10;99.90
20735;DHT22;10528;52.124;5.196;2023-02-04T01:27:37;8.20;99.90
20735;DHT22;10528;52.124;5.196;2023-02-04T01:30:05;8.10;99.90
20735;DHT22;10528;52.124;5.196;2023-02-04T01:32:32;8.20;99.90
20735;DHT22;10528;52.124;5.196;2023-02-04T01:34:59;8.20;99.90
20735;DHT22;10528;52.124;5.196;2023-02-04T01:37:26;8.20;99.90
20735;DHT22;10528;52.124;5.196;2023-02-04T01:39:53;8.20;99.90
20735;DHT22;10528;52.124;5.196;2023-02-04T01:42:20;8.20;99.90
20735;DHT22;10528;52.124;5.196;2023-02-04T01:44:47;8.10;99.90
20735;DHT22;10528;52.124;5.196;2023-02-04T01:47:15;8.20;99.90
20735;DHT22;10528;52.124;5.196;2023-02-04T01:49:41;8.10;99.90
20735;DHT22;10528;52.124;5.196;2023-02-04T01:52:09;8.10;99.90
20735;DHT22;10528;52.124;5.196;2023-02-04T01:54:38;8.10;99.90
20735;DHT22;10528;52.124;5.196;2023-02-04T01:57:08;8.10;99.90
20735;DHT22;10528;52.124;5.196;2023-02-04T01:59:45;8.10;99.90
20735;DHT22;10528;52.124;5.196;2023-02-04T02:02:36;8.10;99.90
20735;DHT22;10528;52.124;5.196;2023-02-04T02:05:15;8.10;99.90
20735;DHT22;10528;52.124;5.196;2023-02-04T02:07:52;8.10;99.90
20735;DHT22;10528;52.124;5.196;2023-02-04T02:10:22;8.10;99.90
20735;DHT22;10528;52.124;5.196;2023-02-04T02:12:50;8.10;99.90
20735;DHT22;10528;52.124;5.196;2023-02-04T02:15:18;8.10;99.90
20735;DHT22;10528;52.124;5.196;2023-02-04T02:17:46;8.10;99.90
20735;DHT22;10528;52.124;5.196;2023-02-04T02:20:15;8.10;99.90
20735;DHT22;10528;52.124;5.196;2023-02-04T02:22:52;8.10;99.90
20735;DHT22;10528;52.124;5.196;2023-02-04T02:25:27;8.10;99.90
20735;DHT22;10528;52.124;5.196;2023-02-04T02:27:54;8.10;99.90
20735;DHT22;10528;52.124;5.196;2023-02-04T02:30:23;8.10;99.90
20735;DHT22;10528;52.124;5.196;2023-02-04T02:32:51;8.10;99.90
20735;DHT22;10528;52.124;5.196;2023-02-04T02:35:19;8.10;99.90
20735;DHT22;10528;52.124;5.196;2023-02-04T02:37:46;8.10;99.90
20735;DHT22;10528;52.124;5.196;2023-02-04T02:40:13;8.00;99.90
20735;DHT22;10528;52.124;5.196;2023-02-04T02:42:42;8.00;99.90
20735;DHT22;10528;52.124;5.196;2023-02-04T02:45:24;8.00;99.90
20735;DHT22;10528;52.124;5.196;2023-02-04T02:47:53;8.00;99.90
20735;DHT22;10528;52.124;5.196;2023-02-04T02:50:26;8.00;99.90
20735;DHT22;10528;52.124;5.196;2023-02-04T02:52:56;8.00;99.90
20735;DHT22;10528;52.124;5.196;2023-02-04T02:55:26;8.00;99.90
20735;DHT22;10528;52.124;5.196;2023-02-04T02:57:55;8.00;99.90
20735;DHT22;10528;52.124;5.196;2023-02-04T03:00:28;7.90;99.90
20735;DHT22;10528;52.124;5.196;2023-02-04T03:03:18;7.90;99.90
20735;DHT22;10528;52.124;5.196;2023-02-04T03:05:52;7.90;99.90
20735;DHT22;10528;52.124;5.196;2023-02-04T03:08:22;7.90;99.90
20735;DHT22;10528;52.124;5.196;2023-02-04T03:10:50;7.90;99.90
20735;DHT22;10528;52.124;5.196;2023-02-04T03:13:17;7.90;99.90
20735;DHT22;10528;52.124;5.196;2023-02-04T03:15:46;7.80;99.90
20735;DHT22;10528;52.124;5.196;2023-02-04T03:18:16;7.80;99.90
20735;DHT22;10528;52.124;5.196;2023-02-04T03:20:46;7.70;99.90
20735;DHT22;10528;52.124;5.196;2023-02-04T03:23:16;7.70;99.90
20735;DHT22;10528;52.124;5.196;2023-02-04T03:25:44;7.70;99.90
20735;DHT22;10528;52.124;5.196;2023-02-04T03:28:11;7.60;99.90
20735;DHT22;10528;52.124;5.196;2023-02-04T03:30:38;7.60;99.90
20735;DHT22;10528;52.124;5.196;2023-02-04T03:33:05;7.60;99.90
20735;DHT22;10528;52.124;5.196;2023-02-04T03:35:32;7.50;99.90
20735;DHT22;10528;52.124;5.196;2023-02-04T03:37:59;7.50;99.90
20735;DHT22;10528;52.124;5.196;2023-02-04T03:40:26;7.40;99.90
20735;DHT22;10528;52.124;5.196;2023-02-04T03:42:53;7.40;99.90
20735;DHT22;10528;52.124;5.196;2023-02-04T03:45:20;7.40;99.90
20735;DHT22;10528;52.124;5.196;2023-02-04T03:47:46;7.30;99.90
20735;DHT22;10528;52.124;5.196;2023-02-04T03:50:13;7.30;99.90
20735;DHT22;10528;52.124;5.196;2023-02-04T03:52:40;7.20;99.90
20735;DHT22;10528;52.124;5.196;2023-02-04T03:55:07;7.20;99.90
20735;DHT22;10528;52.124;5.196;2023-02-04T03:57:34;7.20;99.90
20735;DHT22;10528;52.124;5.196;2023-02-04T04:00:01;7.20;99.90
20735;DHT22;10528;52.124;5.196;2023-02-04T04:02:38;7.10;99.90
20735;DHT22;10528;52.124;5.196;2023-02-04T04:05:06;7.00;99.90
20735;DHT22;10528;52.124;5.196;2023-02-04T04:07:34;7.00;99.90
20735;DHT22;10528;52.124;5.196;2023-02-04T04:10:02;6.90;99.90
20735;DHT22;10528;52.124;5.196;2023-02-04T04:12:29;6.80;99.90
20735;DHT22;10528;52.124;5.196;2023-02-04T04:14:56;6.80;99.90
20735;DHT22;10528;52.124;5.196;2023-02-04T04:17:23;6.80;99.90
20735;DHT22;10528;52.124;5.196;2023-02-04T04:19:50;6.80;99.90
20735;DHT22;10528;52.124;5.196;2023-02-04T04:22:17;6.80;99.90
20735;DHT22;10528;52.124;5.196;2023-02-04T04:24:44;6.70;99.90
20735;DHT22;10528;52.124;5.196;2023-02-04T04:27:10;6.70;99.90
20735;DHT22;10528;52.124;5.196;2023-02-04T04:29:37;6.60;99.90
20735;DHT22;10528;52.124;5.196;2023-02-04T04:32:04;6.60;99.90
20735;DHT22;10528;52.124;5.196;2023-02-04T04:34:31;6.60;99.90
20735;DHT22;10528;52.124;5.196;2023-02-04T04:36:58;6.60;99.90
20735;DHT22;10528;52.124;5.196;2023-02-04T04:39:25;6.60;99.90
20735;DHT22;10528;52.124;5.196;2023-02-04T04:41:52;6.70;99.90
20735;DHT22;10528;52.124;5.196;2023-02-04T04:44:18;6.60;99.90
20735;DHT22;10528;52.124;5.196;2023-02-04T04:46:45;6.80;99.90
20735;DHT22;10528;52.124;5.196;2023-02-04T04:49:12;6.60;99.90
20735;DHT22;10528;52.124;5.196;2023-02-04T04:51:39;6.70;99.90
20735;DHT22;10528;52.124;5.196;2023-02-04T04:54:06;6.60;99.90
20735;DHT22;10528;52.124;5.196;2023-02-04T04:56:33;6.70;99.90
20735;DHT22;10528;52.124;5.196;2023-02-04T04:59:00;6.80;99.90
20735;DHT22;10528;52.124;5.196;2023-02-04T05:01:28;6.70;99.90
20735;DHT22;10528;52.124;5.196;2023-02-04T05:03:58;6.80;99.90
20735;DHT22;10528;52.124;5.196;2023-02-04T05:06:25;6.80;99.90
20735;DHT22;10528;52.124;5.196;2023-02-04T05:08:52;6.80;99.90
20735;DHT22;10528;52.124;5.196;2023-02-04T05:11:19;6.70;99.90
20735;DHT22;10528;52.124;5.196;2023-02-04T05:13:47;6.80;99.90
20735;DHT22;10528;52.124;5.196;2023-02-04T05:16:14;6.80;99.90
20735;DHT22;10528;52.124;5.196;2023-02-04T05:18:41;6.80;99.90
20735;DHT22;10528;52.124;5.196;2023-02-04T05:21:08;6.80;99.90
20735;DHT22;10528;52.124;5.196;2023-02-04T05:23:35;6.80;99.90
20735;DHT22;10528;52.124;5.196;2023-02-04T05:26:02;6.90;99.90
20735;DHT22;10528;52.124;5.196;2023-02-04T05:28:29;6.90;99.90
20735;DHT22;10528;52.124;5.196;2023-02-04T05:30:56;6.90;99.90
20735;DHT22;10528;52.124;5.196;2023-02-04T05:33:23;7.00;99.90
20735;DHT22;10528;52.124;5.196;2023-02-04T05:35:49;7.00;99.90
20735;DHT22;10528;52.124;5.196;2023-02-04T05:38:16;7.00;99.90
20735;DHT22;10528;52.124;5.196;2023-02-04T05:40:43;7.10;99.90
20735;DHT22;10528;52.124;5.196;2023-02-04T05:43:10;7.10;99.90
20735;DHT22;10528;52.124;5.196;2023-02-04T05:45:37;7.10;99.90
20735;DHT22;10528;52.124;5.196;2023-02-04T05:48:04;7.20;99.90
20735;DHT22;10528;52.124;5.196;2023-02-04T05:50:31;7.20;99.90
20735;DHT22;10528;52.124;5.196;2023-02-04T05:53:07;7.30;99.90
20735;DHT22;10528;52.124;5.196;2023-02-04T05:55:35;7.30;99.90
20735;DHT22;10528;52.124;5.196;2023-02-04T05:58:01;7.40;99.90
20735;DHT22;10528;52.124;5.196;2023-02-04T06:00:28;7.40;99.90
20735;DHT22;10528;52.124;5.196;2023-02-04T06:02:56;7.40;99.90
20735;DHT22;10528;52.124;5.196;2023-02-04T06:05:23;7.40;99.90
20735;DHT22;10528;52.124;5.196;2023-02-04T06:07:49;7.40;99.90
20735;DHT22;10528;52.124;5.196;2023-02-04T06:10:16;7.40;99.90
20735;DHT22;10528;52.124;5.196;2023-02-04T06:12:43;7.40;99.90
20735;DHT22;10528;52.124;5.196;2023-02-04T06:15:10;7.40;99.90
20735;DHT22;10528;52.124;5.196;2023-02-04T06:17:38;7.40;99.90
20735;DHT22;10528;52.124;5.196;2023-02-04T06:20:06;7.40;99.90
20735;DHT22;10528;52.124;5.196;2023-02-04T06:22:34;7.30;99.90
20735;DHT22;10528;52.124;5.196;2023-02-04T06:25:01;7.30;99.90
20735;DHT22;10528;52.124;5.196;2023-02-04T06:27:27;7.30;99.90
20735;DHT22;10528;52.124;5.196;2023-02-04T06:29:54;7.30;99.90
20735;DHT22;10528;52.124;5.196;2023-02-04T06:32:22;7.30;99.90
20735;DHT22;10528;52.124;5.196;2023-02-04T06:34:49;7.30;99.90
20735;DHT22;10528;52.124;5.196;2023-02-04T06:37:16;7.30;99.90
20735;DHT22;10528;52.124;5.196;2023-02-04T06:39:43;7.30;99.90
20735;DHT22;10528;52.124;5.196;2023-02-04T06:42:10;7.20;99.90
20735;DHT22;10528;52.124;5.196;2023-02-04T06:44:37;7.20;99.90
20735;DHT22;10528;52.124;5.196;2023-02-04T06:47:04;7.20;99.90
20735;DHT22;10528;52.124;5.196;2023-02-04T06:49:31;7.20;99.90
20735;DHT22;10528;52.124;5.196;2023-02-04T06:51:57;7.20;99.90
20735;DHT22;10528;52.124;5.196;2023-02-04T06:54:24;7.20;99.90
20735;DHT22;10528;52.124;5.196;2023-02-04T06:56:51;7.20;99.90
20735;DHT22;10528;52.124;5.196;2023-02-04T06:59:18;7.30;99.90
20735;DHT22;10528;52.124;5.196;2023-02-04T07:01:45;7.30;99.90
20735;DHT22;10528;52.124;5.196;2023-02-04T07:04:12;7.40;99.90
20735;DHT22;10528;52.124;5.196;2023-02-04T07:06:38;7.40;99.90
20735;DHT22;10528;52.124;5.196;2023-02-04T07:09:05;7.30;99.90
20735;DHT22;10528;52.124;5.196;2023-02-04T07:11:32;7.30;99.90
20735;DHT22;10528;52.124;5.196;2023-02-04T07:13:59;7.30;99.90
20735;DHT22;10528;52.124;5.196;2023-02-04T07:16:26;7.30;99.90
20735;DHT22;10528;52.124;5.196;2023-02-04T07:18:52;7.30;99.90
20735;DHT22;10528;52.124;5.196;2023-02-04T07:21:19;7.30;99.90
20735;DHT22;10528;52.124;5.196;2023-02-04T07:23:46;7.40;99.90
20735;DHT22;10528;52.124;5.196;2023-02-04T07:26:13;7.40;99.90
20735;DHT22;10528;52.124;5.196;2023-02-04T07:28:40;7.40;99.90
20735;DHT22;10528;52.124;5.196;2023-02-04T07:31:07;7.40;99.90
20735;DHT22;10528;52.124;5.196;2023-02-04T07:33:35;7.40;99.90
20735;DHT22;10528;52.124;5.196;2023-02-04T07:36:02;7.40;99.90
20735;DHT22;10528;52.124;5.196;2023-02-04T07:38:29;7.40;99.90
20735;DHT22;10528;52.124;5.196;2023-02-04T07:40:56;7.40;99.90
20735;DHT22;10528;52.124;5.196;2023-02-04T07:43:23;7.40;99.90
20735;DHT22;10528;52.124;5.196;2023-02-04T07:45:50;7.50;99.90
20735;DHT22;10528;52.124;5.196;2023-02-04T07:48:17;7.50;99.90
20735;DHT22;10528;52.124;5.196;2023-02-04T07:50:44;7.50;99.90
20735;DHT22;10528;52.124;5.196;2023-02-04T07:53:11;7.50;99.90
20735;DHT22;10528;52.124;5.196;2023-02-04T07:55:37;7.60;99.90
20735;DHT22;10528;52.124;5.196;2023-02-04T07:58:04;7.60;99.90
20735;DHT22;10528;52.124;5.196;2023-02-04T08:00:31;7.70;99.90
20735;DHT22;10528;52.124;5.196;2023-02-04T08:02:59;7.70;99.90
20735;DHT22;10528;52.124;5.196;2023-02-04T08:05:26;7.70;99.90
20735;DHT22;10528;52.124;5.196;2023-02-04T08:07:52;7.70;99.90
20735;DHT22;10528;52.124;5.196;2023-02-04T08:10:19;7.80;99.90
20735;DHT22;10528;52.124;5.196;2023-02-04T08:12:47;7.80;99.90
20735;DHT22;10528;52.124;5.196;2023-02-04T08:15:14;7.80;99.90
20735;DHT22;10528;52.124;5.196;2023-02-04T08:17:41;7.80;99.90
20735;DHT22;10528;52.124;5.196;2023-02-04T08:20:08;7.80;99.90
20735;DHT22;10528;52.124;5.196;2023-02-04T08:22:36;7.80;99.90
20735;DHT22;10528;52.124;5.196;2023-02-04T08:25:04;7.90;99.90
20735;DHT22;10528;52.124;5.196;2023-02-04T08:27:31;8.00;99.90
20735;DHT22;10528;52.124;5.196;2023-02-04T08:29:58;8.00;99.90
20735;DHT22;10528;52.124;5.196;2023-02-04T08:32:25;8.00;99.90
20735;DHT22;10528;52.124;5.196;2023-02-04T08:34:54;8.00;99.90
20735;DHT22;10528;52.124;5.196;2023-02-04T08:37:21;8.10;99.90
20735;DHT22;10528;52.124;5.196;2023-02-04T08:39:49;8.10;99.90
20735;DHT22;10528;52.124;5.196;2023-02-04T08:42:16;8.10;99.90
20735;DHT22;10528;52.124;5.196;2023-02-04T08:44:42;8.10;99.90
20735;DHT22;10528;52.124;5.196;2023-02-04T08:47:10;8.20;99.90
20735;DHT22;10528;52.124;5.196;2023-02-04T08:49:37;8.30;99.90
20735;DHT22;10528;52.124;5.196;2023-02-04T08:52:04;8.30;99.90
20735;DHT22;10528;52.124;5.196;2023-02-04T08:54:33;8.40;99.90
20735;DHT22;10528;52.124;5.196;2023-02-04T08:57:01;8.40;99.90
20735;DHT22;10528;52.124;5.196;2023-02-04T08:59:28;8.40;99.90
20735;DHT22;10528;52.124;5.196;2023-02-04T09:01:55;8.50;99.90
20735;DHT22;10528;52.124;5.196;2023-02-04T09:04:22;8.60;99.90
20735;DHT22;10528;52.124;5.196;2023-02-04T09:06:50;8.60;99.90
20735;DHT22;10528;52.124;5.196;2023-02-04T09:09:18;8.60;99.90
20735;DHT22;10528;52.124;5.196;2023-02-04T09:11:48;8.70;99.90
20735;DHT22;10528;52.124;5.196;2023-02-04T09:14:14;8.70;99.90
20735;DHT22;10528;52.124;5.196;2023-02-04T09:16:41;8.80;99.90
20735;DHT22;10528;52.124;5.196;2023-02-04T09:19:08;8.80;99.90
20735;DHT22;10528;52.124;5.196;2023-02-04T09:21:38;8.80;99.90
20735;DHT22;10528;52.124;5.196;2023-02-04T09:24:04;8.80;99.90
20735;DHT22;10528;52.124;5.196;2023-02-04T09:26:31;8.90;99.90
20735;DHT22;10528;52.124;5.196;2023-02-04T09:28:58;9.00;99.90
20735;DHT22;10528;52.124;5.196;2023-02-04T09:31:25;9.00;99.90
20735;DHT22;10528;52.124;5.196;2023-02-04T09:33:52;9.10;99.90
20735;DHT22;10528;52.124;5.196;2023-02-04T09:36:19;9.20;99.90
20735;DHT22;10528;52.124;5.196;2023-02-04T09:38:46;9.20;99.90
20735;DHT22;10528;52.124;5.196;2023-02-04T09:41:13;9.20;99.90
20735;DHT22;10528;52.124;5.196;2023-02-04T09:43:43;9.30;99.90
20735;DHT22;10528;52.124;5.196;2023-02-04T09:46:22;9.40;99.90
20735;DHT22;10528;52.124;5.196;2023-02-04T09:48:51;9.30;99.90
20735;DHT22;10528;52.124;5.196;2023-02-04T09:51:23;9.40;99.90
20735;DHT22;10528;52.124;5.196;2023-02-04T09:53:54;9.40;99.90
20735;DHT22;10528;52.124;5.196;2023-02-04T09:56:30;9.60;99.90
20735;DHT22;10528;52.124;5.196;2023-02-04T09:58:56;9.60;99.90
20735;DHT22;10528;52.124;5.196;2023-02-04T10:01:25;9.60;99.90
20735;DHT22;10528;52.124;5.196;2023-02-04T10:03:54;9.60;99.90
20735;DHT22;10528;52.124;5.196;2023-02-04T10:06:26;9.60;99.90
20735;DHT22;10528;52.124;5.196;2023-02-04T10:08:53;9.80;99.90
20735;DHT22;10528;52.124;5.196;2023-02-04T10:11:22;9.70;99.90
20735;DHT22;10528;52.124;5.196;2023-02-04T10:13:53;9.80;99.90
20735;DHT22;10528;52.124;5.196;2023-02-04T10:16:30;9.80;99.90
20735;DHT22;10528;52.124;5.196;2023-02-04T10:19:02;9.90;99.90
20735;DHT22;10528;52.124;5.196;2023-02-04T10:21:33;9.80;99.90
20735;DHT22;10528;52.124;5.196;2023-02-04T10:24:17;10.10;99.90
20735;DHT22;10528;52.124;5.196;2023-02-04T10:26:47;10.20;99.90
20735;DHT22;10528;52.124;5.196;2023-02-04T10:29:20;10.10;99.90
20735;DHT22;10528;52.124;5.196;2023-02-04T10:31:51;10.20;99.90
20735;DHT22;10528;52.124;5.196;2023-02-04T10:34:31;10.20;99.90
20735;DHT22;10528;52.124;5.196;2023-02-04T10:37:11;10.20;99.90
20735;DHT22;10528;52.124;5.196;2023-02-04T10:39:45;10.30;99.90
20735;DHT22;10528;52.124;5.196;2023-02-04T10:42:24;10.40;99.90
20735;DHT22;10528;52.124;5.196;2023-02-04T10:44:53;10.40;99.90
20735;DHT22;10528;52.124;5.196;2023-02-04T10:47:26;10.40;99.90
20735;DHT22;10528;52.124;5.196;2023-02-04T10:49:56;10.30;99.90
20735;DHT22;10528;52.124;5.196;2023-02-04T10:52:51;10.30;99.90
20735;DHT22;10528;52.124;5.196;2023-02-04T10:55:43;10.30;99.90
20735;DHT22;10528;52.124;5.196;2023-02-04T10:58:14;10.40;99.90
20735;DHT22;10528;52.124;5.196;2023-02-04T11:00:45;10.40;99.90
20735;DHT22;10528;52.124;5.196;2023-02-04T11:03:21;10.60;99.90
20735;DHT22;10528;52.124;5.196;2023-02-04T11:05:56;10.60;99.90
20735;DHT22;10528;52.124;5.196;2023-02-04T11:08:32;10.50;99.90
20735;DHT22;10528;52.124;5.196;2023-02-04T11:18:52;10.60;99.90
20735;DHT22;10528;52.124;5.196;2023-02-04T11:21:24;10.50;99.90
20735;DHT22;10528;52.124;5.196;2023-02-04T11:26:40;10.40;99.90
20735;DHT22;10528;52.124;5.196;2023-02-04T11:29:30;10.50;99.90
20735;DHT22;10528;52.124;5.196;2023-02-04T11:32:05;10.70;99.90
20735;DHT22;10528;52.124;5.196;2023-02-04T11:34:52;10.70;99.90
20735;DHT22;10528;52.124;5.196;2023-02-04T11:37:35;10.80;99.90
20735;DHT22;10528;52.124;5.196;2023-02-04T11:40:34;10.80;99.90
20735;DHT22;10528;52.124;5.196;2023-02-04T11:43:10;10.70;99.90
20735;DHT22;10528;52.124;5.196;2023-02-04T11:45:41;10.80;99.90
20735;DHT22;10528;52.124;5.196;2023-02-04T11:48:17;10.80;99.90
20735;DHT22;10528;52.124;5.196;2023-02-04T11:50:59;10.80;99.90
20735;DHT22;10528;52.124;5.196;2023-02-04T11:53:33;10.90;99.90
20735;DHT22;10528;52.124;5.196;2023-02-04T11:56:00;11.00;99.90
20735;DHT22;10528;52.124;5.196;2023-02-04T11:58:29;11.10;99.90
20735;DHT22;10528;52.124;5.196;2023-02-04T12:00:56;11.10;99.90
20735;DHT22;10528;52.124;5.196;2023-02-04T12:03:26;11.10;99.90
20735;DHT22;10528;52.124;5.196;2023-02-04T12:05:57;11.30;99.90
20735;DHT22;10528;52.124;5.196;2023-02-04T12:08:34;11.30;99.90
20735;DHT22;10528;52.124;5.196;2023-02-04T12:11:06;11.20;99.90
20735;DHT22;10528;52.124;5.196;2023-02-04T12:13:51;11.20;99.90
20735;DHT22;10528;52.124;5.196;2023-02-04T12:16:19;11.50;99.90
20735;DHT22;10528;52.124;5.196;2023-02-04T12:18:47;11.40;99.90
20735;DHT22;10528;52.124;5.196;2023-02-04T12:21:14;11.60;99.90
20735;DHT22;10528;52.124;5.196;2023-02-04T12:23:41;11.70;99.90
20735;DHT22;10528;52.124;5.196;2023-02-04T12:26:09;11.70;99.90
20735;DHT22;10528;52.124;5.196;2023-02-04T12:28:36;11.60;99.90
20735;DHT22;10528;52.124;5.196;2023-02-04T12:31:03;11.70;99.90
20735;DHT22;10528;52.124;5.196;2023-02-04T12:33:30;11.60;99.90
20735;DHT22;10528;52.124;5.196;2023-02-04T12:35:57;11.80;99.90
20735;DHT22;10528;52.124;5.196;2023-02-04T12:38:24;11.80;99.90
20735;DHT22;10528;52.124;5.196;2023-02-04T12:40:53;11.70;99.90
20735;DHT22;10528;52.124;5.196;2023-02-04T12:43:19;11.70;99.90
20735;DHT22;10528;52.124;5.196;2023-02-04T12:45:46;11.60;99.90
20735;DHT22;10528;52.124;5.196;2023-02-04T12:48:15;11.50;99.90
20735;DHT22;10528;52.124;5.196;2023-02-04T12:50:43;11.40;99.90
20735;DHT22;10528;52.124;5.196;2023-02-04T12:53:09;11.30;99.90
20735;DHT22;10528;52.124;5.196;2023-02-04T12:55:36;11.30;99.90
20735;DHT22;10528;52.124;5.196;2023-02-04T12:58:03;11.20;99.90
20735;DHT22;10528;52.124;5.196;2023-02-04T13:00:30;11.20;99.90
20735;DHT22;10528;52.124;5.196;2023-02-04T13:02:57;11.30;99.90
20735;DHT22;10528;52.124;5.196;2023-02-04T13:05:25;11.30;99.90
20735;DHT22;10528;52.124;5.196;2023-02-04T13:07:52;11.30;99.90
20735;DHT22;10528;52.124;5.196;2023-02-04T13:10:20;11.20;99.90
20735;DHT22;10528;52.124;5.196;2023-02-04T13:12:50;11.20;99.90
20735;DHT22;10528;52.124;5.196;2023-02-04T13:15:17;11.20;99.90
20735;DHT22;10528;52.124;5.196;2023-02-04T13:17:44;11.20;99.90
20735;DHT22;10528;52.124;5.196;2023-02-04T13:20:11;11.30;99.90
20735;DHT22;10528;52.124;5.196;2023-02-04T13:22:38;11.40;99.90
20735;DHT22;10528;52.124;5.196;2023-02-04T13:25:06;11.50;99.90
20735;DHT22;10528;52.124;5.196;2023-02-04T13:27:33;11.50;99.90
20735;DHT22;10528;52.124;5.196;2023-02-04T13:29:59;11.60;99.90
20735;DHT22;10528;52.124;5.196;2023-02-04T13:32:26;11.50;99.90
20735;DHT22;10528;52.124;5.196;2023-02-04T13:34:53;11.30;99.90
20735;DHT22;10528;52.124;5.196;2023-02-04T13:37:20;11.20;99.90
20735;DHT22;10528;52.124;5.196;2023-02-04T13:39:47;11.40;99.90
20735;DHT22;10528;52.124;5.196;2023-02-04T13:42:14;11.40;99.90
20735;DHT22;10528;52.124;5.196;2023-02-04T13:44:41;11.50;99.90
20735;DHT22;10528;52.124;5.196;2023-02-04T13:47:08;11.50;99.90
20735;DHT22;10528;52.124;5.196;2023-02-04T13:49:35;11.40;99.90
20735;DHT22;10528;52.124;5.196;2023-02-04T13:52:01;11.40;99.90
20735;DHT22;10528;52.124;5.196;2023-02-04T13:54:28;11.60;99.90
20735;DHT22;10528;52.124;5.196;2023-02-04T13:56:55;11.50;99.90
20735;DHT22;10528;52.124;5.196;2023-02-04T13:59:22;11.50;99.90
20735;DHT22;10528;52.124;5.196;2023-02-04T14:01:49;11.40;99.90
20735;DHT22;10528;52.124;5.196;2023-02-04T14:04:15;11.30;99.90
20735;DHT22;10528;52.124;5.196;2023-02-04T14:06:42;11.20;99.90
20735;DHT22;10528;52.124;5.196;2023-02-04T14:09:10;11.20;99.90
20735;DHT22;10528;52.124;5.196;2023-02-04T14:11:38;11.20;99.90
20735;DHT22;10528;52.124;5.196;2023-02-04T14:14:06;11.20;99.90
20735;DHT22;10528;52.124;5.196;2023-02-04T14:16:33;11.20;99.90
20735;DHT22;10528;52.124;5.196;2023-02-04T14:19:03;11.20;99.90
20735;DHT22;10528;52.124;5.196;2023-02-04T14:21:30;11.20;99.90
20735;DHT22;10528;52.124;5.196;2023-02-04T14:23:58;11.10;99.90
20735;DHT22;10528;52.124;5.196;2023-02-04T14:26:25;11.20;99.90
20735;DHT22;10528;52.124;5.196;2023-02-04T14:28:52;11.20;99.90
20735;DHT22;10528;52.124;5.196;2023-02-04T14:31:18;11.20;99.90
20735;DHT22;10528;52.124;5.196;2023-02-04T14:33:45;11.10;99.90
20735;DHT22;10528;52.124;5.196;2023-02-04T14:36:15;11.10;99.90
20735;DHT22;10528;52.124;5.196;2023-02-04T14:38:42;11.10;99.90
20735;DHT22;10528;52.124;5.196;2023-02-04T14:41:09;11.00;99.90
20735;DHT22;10528;52.124;5.196;2023-02-04T14:43:41;11.00;99.90
20735;DHT22;10528;52.124;5.196;2023-02-04T14:46:08;11.00;99.90
20735;DHT22;10528;52.124;5.196;2023-02-04T14:48:35;11.00;99.90
20735;DHT22;10528;52.124;5.196;2023-02-04T14:51:02;10.90;99.90
20735;DHT22;10528;52.124;5.196;2023-02-04T14:53:30;10.90;99.90
20735;DHT22;10528;52.124;5.196;2023-02-04T14:55:57;10.70;99.90
20735;DHT22;10528;52.124;5.196;2023-02-04T14:58:24;10.80;99.90
20735;DHT22;10528;52.124;5.196;2023-02-04T15:00:53;10.80;99.90
20735;DHT22;10528;52.124;5.196;2023-02-04T15:03:21;10.90;99.90
20735;DHT22;10528;52.124;5.196;2023-02-04T15:05:48;10.90;99.90
20735;DHT22;10528;52.124;5.196;2023-02-04T15:08:15;10.80;99.90
20735;DHT22;10528;52.124;5.196;2023-02-04T15:10:42;10.80;99.90
20735;DHT22;10528;52.124;5.196;2023-02-04T15:13:09;10.70;99.90
20735;DHT22;10528;52.124;5.196;2023-02-04T15:15:36;10.60;99.90
20735;DHT22;10528;52.124;5.196;2023-02-04T15:18:03;10.60;99.90
20735;DHT22;10528;52.124;5.196;2023-02-04T15:20:30;10.60;99.90
20735;DHT22;10528;52.124;5.196;2023-02-04T15:22:58;10.60;99.90
20735;DHT22;10528;52.124;5.196;2023-02-04T15:25:26;10.60;99.90
20735;DHT22;10528;52.124;5.196;2023-02-04T15:27:53;10.50;99.90
20735;DHT22;10528;52.124;5.196;2023-02-04T15:30:20;10.40;99.90
20735;DHT22;10528;52.124;5.196;2023-02-04T15:32:47;10.40;99.90
20735;DHT22;10528;52.124;5.196;2023-02-04T15:35:14;10.30;99.90
20735;DHT22;10528;52.124;5.196;2023-02-04T15:37:41;10.30;99.90
20735;DHT22;10528;52.124;5.196;2023-02-04T15:40:09;10.30;99.90
20735;DHT22;10528;52.124;5.196;2023-02-04T15:42:37;10.10;99.90
20735;DHT22;10528;52.124;5.196;2023-02-04T15:45:04;10.00;99.90
20735;DHT22;10528;52.124;5.196;2023-02-04T15:47:32;9.90;99.90
20735;DHT22;10528;52.124;5.196;2023-02-04T15:49:59;9.80;99.90
20735;DHT22;10528;52.124;5.196;2023-02-04T15:52:27;9.80;99.90
20735;DHT22;10528;52.124;5.196;2023-02-04T15:54:55;9.70;99.90
20735;DHT22;10528;52.124;5.196;2023-02-04T15:57:21;9.80;99.90
20735;DHT22;10528;52.124;5.196;2023-02-04T15:59:48;9.90;99.90